sensor_id;sensor_type;location;lat;lon;timestamp;pressure;altitude;pressure_sealevel;temperature;humidity
51986;BME280;38002;53.296;6.600;2023-08-24T01:53:25;102047.63;;;14.99;82.42
51986;BME280;38002;53.296;6.600;2023-08-24T01:58:26;102051.09;;;15.01;82.66
51986;BME280;38002;53.296;6.600;2023-08-24T02:03:26;102027.28;;;15.02;82.91
51986;BME280;38002;53.296;6.600;2023-08-24T02:08:27;102028.84;;;15.04;82.82
51986;BME280;38002;53.296;6.600;2023-08-24T02:13:27;102025.25;;;15.04;83.24
51986;BME280;38002;53.296;6.600;2023-08-24T02:18:28;102030.38;;;15.07;83.38
51986;BME280;38002;53.296;6.600;2023-08-24T02:23:29;102041.19;;;15.08;83.36
51986;BME280;38002;53.296;6.600;2023-08-24T02:28:29;102037.44;;;15.09;83.79
51986;BME280;38002;53.296;6.600;2023-08-24T02:33:31;102041.56;;;15.13;83.75
51986;BME280;38002;53.296;6.600;2023-08-24T02:38:31;102038.50;;;15.16;83.83
51986;BME280;38002;53.296;6.600;2023-08-24T02:43:32;102030.81;;;15.20;84.22
51986;BME280;38002;53.296;6.600;2023-08-24T02:48:34;102023.97;;;15.24;84.08
51986;BME280;38002;53.296;6.600;2023-08-24T02:53:34;102006.34;;;15.26;84.46
51986;BME280;38002;53.296;6.600;2023-08-24T02:58:35;102008.22;;;15.26;84.69
51986;BME280;38002;53.296;6.600;2023-08-24T03:03:36;102015.25;;;15.28;84.61
51986;BME280;38002;53.296;6.600;2023-08-24T03:08:37;101994.03;;;15.30;84.98
51986;BME280;38002;53.296;6.600;2023-08-24T03:13:37;101996.78;;;15.30;84.92
51986;BME280;38002;53.296;6.600;2023-08-24T03:18:38;101992.16;;;15.31;84.62
51986;BME280;38002;53.296;6.600;2023-08-24T03:23:39;102008.75;;;15.29;85.09
51986;BME280;38002;53.296;6.600;2023-08-24T03:28:39;102000.88;;;15.26;85.19
51986;BME280;38002;53.296;6.600;2023-08-24T03:33:40;101997.75;;;15.21;85.14
51986;BME280;38002;53.296;6.600;2023-08-24T03:38:40;102009.91;;;15.19;85.03
51986;BME280;38002;53.296;6.600;2023-08-24T03:43:41;102005.25;;;15.11;85.37
51986;BME280;38002;53.296;6.600;2023-08-24T03:48:42;102004.88;;;15.06;85.29
51986;BME280;38002;53.296;6.600;2023-08-24T03:53:42;102003.84;;;15.07;85.56
51986;BME280;38002;53.296;6.600;2023-08-24T03:58:42;102011.06;;;15.08;85.57
51986;BME280;38002;53.296;6.600;2023-08-24T04:03:43;102006.44;;;15.09;85.72
51986;BME280;38002;53.296;6.600;2023-08-24T04:08:44;101994.47;;;15.10;85.99
51986;BME280;38002;53.296;6.600;2023-08-24T04:13:45;102010.19;;;15.08;86.01
51986;BME280;38002;53.296;6.600;2023-08-24T04:18:45;102011.22;;;15.07;86.24
51986;BME280;38002;53.296;6.600;2023-08-24T04:23:48;102007.31;;;15.09;86.15
51986;BME280;38002;53.296;6.600;2023-08-24T04:28:49;102009.84;;;15.11;86.06
51986;BME280;38002;53.296;6.600;2023-08-24T04:33:52;102012.59;;;15.11;86.35
51986;BME280;38002;53.296;6.600;2023-08-24T04:38:52;102001.81;;;15.09;86.17
51986;BME280;38002;53.296;6.600;2023-08-24T04:43:54;101990.88;;;15.09;86.33
51986;BME280;38002;53.296;6.600;2023-08-24T04:48:55;101979.03;;;15.09;86.27
51986;BME280;38002;53.296;6.600;2023-08-24T04:53:55;101976.47;;;15.07;86.22
51986;BME280;38002;53.296;6.600;2023-08-24T04:58:56;101954.72;;;15.06;86.37
51986;BME280;38002;53.296;6.600;2023-08-24T05:03:57;101957.78;;;15.03;86.44
51986;BME280;38002;53.296;6.600;2023-08-24T05:08:58;101962.56;;;15.01;86.67
51986;BME280;38002;53.296;6.600;2023-08-24T05:13:59;101965.63;;;14.97;86.41
51986;BME280;38002;53.296;6.600;2023-08-24T05:18:59;101954.84;;;14.96;86.87
51986;BME280;38002;53.296;6.600;2023-08-24T05:23:59;101952.41;;;14.93;87.29
51986;BME280;38002;53.296;6.600;2023-08-24T05:29:00;101960.31;;;14.96;87.12
51986;BME280;38002;53.296;6.600;2023-08-24T05:34:01;101958.25;;;14.98;87.41
51986;BME280;38002;53.296;6.600;2023-08-24T05:39:02;101968.56;;;15.04;87.57
51986;BME280;38002;53.296;6.600;2023-08-24T05:44:03;101946.69;;;15.12;87.62
51986;BME280;38002;53.296;6.600;2023-08-24T05:49:04;101948.97;;;15.25;88.00
51986;BME280;38002;53.296;6.600;2023-08-24T05:54:05;101945.75;;;15.37;88.18
51986;BME280;38002;53.296;6.600;2023-08-24T05:59:05;101943.72;;;15.48;87.97
51986;BME280;38002;53.296;6.600;2023-08-24T06:04:06;101948.91;;;15.59;88.29
51986;BME280;38002;53.296;6.600;2023-08-24T06:09:06;101962.31;;;15.70;88.58
51986;BME280;38002;53.296;6.600;2023-08-24T06:14:07;101969.19;;;15.82;88.76
51986;BME280;38002;53.296;6.600;2023-08-24T06:19:07;101966.09;;;15.93;88.72
51986;BME280;38002;53.296;6.600;2023-08-24T06:24:07;101964.94;;;16.04;89.10
51986;BME280;38002;53.296;6.600;2023-08-24T06:29:08;101971.09;;;16.14;88.94
51986;BME280;38002;53.296;6.600;2023-08-24T06:34:08;101951.72;;;16.23;89.09
51986;BME280;38002;53.296;6.600;2023-08-24T06:39:09;101942.78;;;16.38;89.29
51986;BME280;38002;53.296;6.600;2023-08-24T06:44:10;101934.53;;;16.46;89.04
51986;BME280;38002;53.296;6.600;2023-08-24T06:49:10;101922.88;;;16.52;89.17
51986;BME280;38002;53.296;6.600;2023-08-24T06:54:10;101927.13;;;16.54;89.17
51986;BME280;38002;53.296;6.600;2023-08-24T06:59:11;101916.16;;;16.62;89.13
51986;BME280;38002;53.296;6.600;2023-08-24T07:04:13;101896.75;;;16.72;89.19
51986;BME280;38002;53.296;6.600;2023-08-24T07:09:13;101879.69;;;16.85;89.13
51986;BME280;38002;53.296;6.600;2023-08-24T07:14:15;101870.16;;;17.03;92.41
51986;BME280;38002;53.296;6.600;2023-08-24T07:19:16;101866.63;;;17.17;88.69
51986;BME280;38002;53.296;6.600;2023-08-24T07:24:16;101862.09;;;17.33;88.62
51986;BME280;38002;53.296;6.600;2023-08-24T07:29:20;101850.59;;;17.52;88.03
51986;BME280;38002;53.296;6.600;2023-08-24T07:34:20;101844.16;;;17.67;90.94
51986;BME280;38002;53.296;6.600;2023-08-24T07:39:22;101843.63;;;17.87;87.90
51986;BME280;38002;53.296;6.600;2023-08-24T07:44:22;101823.69;;;18.07;87.60
51986;BME280;38002;53.296;6.600;2023-08-24T07:49:23;101810.88;;;18.29;87.17
51986;BME280;38002;53.296;6.600;2023-08-24T07:54:23;101806.69;;;18.48;87.32
51986;BME280;38002;53.296;6.600;2023-08-24T07:59:25;101813.16;;;18.70;87.20
51986;BME280;38002;53.296;6.600;2023-08-24T08:04:25;101833.38;;;18.91;86.67
51986;BME280;38002;53.296;6.600;2023-08-24T08:09:26;101816.47;;;19.16;86.55
51986;BME280;38002;53.296;6.600;2023-08-24T08:14:26;101812.69;;;19.38;85.97
51986;BME280;38002;53.296;6.600;2023-08-24T08:19:27;101833.28;;;19.57;85.80
51986;BME280;38002;53.296;6.600;2023-08-24T08:24:28;101836.22;;;19.76;85.44
51986;BME280;38002;53.296;6.600;2023-08-24T08:29:28;101834.75;;;20.02;85.02
51986;BME280;38002;53.296;6.600;2023-08-24T08:34:29;101810.47;;;20.25;84.70
51986;BME280;38002;53.296;6.600;2023-08-24T08:39:29;101789.22;;;20.53;84.25
51986;BME280;38002;53.296;6.600;2023-08-24T08:44:31;101776.16;;;20.81;83.79
51986;BME280;38002;53.296;6.600;2023-08-24T08:49:33;101766.31;;;21.13;83.11
51986;BME280;38002;53.296;6.600;2023-08-24T08:54:35;101780.19;;;21.46;82.62
51986;BME280;38002;53.296;6.600;2023-08-24T08:59:36;101790.44;;;21.79;81.81
51986;BME280;38002;53.296;6.600;2023-08-24T09:04:38;101765.06;;;21.88;81.41
51986;BME280;38002;53.296;6.600;2023-08-24T09:09:39;101758.28;;;22.04;81.08
51986;BME280;38002;53.296;6.600;2023-08-24T09:14:40;101742.59;;;22.42;80.56
51986;BME280;38002;53.296;6.600;2023-08-24T09:19:41;101752.31;;;22.71;79.99
51986;BME280;38002;53.296;6.600;2023-08-24T09:24:42;101747.53;;;22.91;79.31
51986;BME280;38002;53.296;6.600;2023-08-24T09:29:42;101762.09;;;23.18;79.32
51986;BME280;38002;53.296;6.600;2023-08-24T09:34:43;101773.94;;;23.38;78.82
51986;BME280;38002;53.296;6.600;2023-08-24T09:39:44;101765.38;;;23.40;78.23
51986;BME280;38002;53.296;6.600;2023-08-24T09:44:44;101744.56;;;23.24;78.11
51986;BME280;38002;53.296;6.600;2023-08-24T09:55:20;101722.53;;;22.98;77.82
51986;BME280;38002;53.296;6.600;2023-08-24T10:00:23;101721.75;;;22.84;78.09
51986;BME280;38002;53.296;6.600;2023-08-24T10:10:27;101702.22;;;22.59;76.20
51986;BME280;38002;53.296;6.600;2023-08-24T10:15:28;101709.28;;;22.55;78.67
51986;BME280;38002;53.296;6.600;2023-08-24T10:20:29;101691.22;;;22.46;78.56
51986;BME280;38002;53.296;6.600;2023-08-24T10:25:30;101681.03;;;22.34;78.79
51986;BME280;38002;53.296;6.600;2023-08-24T10:30:31;101677.66;;;22.25;78.61
51986;BME280;38002;53.296;6.600;2023-08-24T10:35:32;101652.53;;;22.20;78.76
51986;BME280;38002;53.296;6.600;2023-08-24T10:40:34;101634.22;;;22.12;79.13
51986;BME280;38002;53.296;6.600;2023-08-24T10:46:01;101617.00;;;22.04;78.95
51986;BME280;38002;53.296;6.600;2023-08-24T10:51:23;101608.69;;;21.97;78.98
51986;BME280;38002;53.296;6.600;2023-08-24T11:01:32;101602.75;;;21.87;79.73
51986;BME280;38002;53.296;6.600;2023-08-24T11:06:32;101610.22;;;21.80;79.52
51986;BME280;38002;53.296;6.600;2023-08-24T11:11:33;101606.63;;;21.73;79.83
51986;BME280;38002;53.296;6.600;2023-08-24T11:16:43;101604.06;;;21.71;79.97
51986;BME280;38002;53.296;6.600;2023-08-24T11:21:45;101604.72;;;21.73;80.04
51986;BME280;38002;53.296;6.600;2023-08-24T11:26:48;101602.81;;;21.74;80.26
51986;BME280;38002;53.296;6.600;2023-08-24T11:31:48;101599.78;;;21.76;80.83
51986;BME280;38002;53.296;6.600;2023-08-24T11:36:49;101588.50;;;21.77;80.75
51986;BME280;38002;53.296;6.600;2023-08-24T11:42:05;101585.53;;;21.79;81.47
51986;BME280;38002;53.296;6.600;2023-08-24T11:47:06;101583.19;;;21.82;81.62
51986;BME280;38002;53.296;6.600;2023-08-24T11:52:06;101581.03;;;21.84;82.17
51986;BME280;38002;53.296;6.600;2023-08-24T11:57:07;101573.75;;;21.90;82.25
51986;BME280;38002;53.296;6.600;2023-08-24T12:02:08;101560.97;;;21.89;84.44
51986;BME280;38002;53.296;6.600;2023-08-24T12:07:11;101576.13;;;21.93;84.63
51986;BME280;38002;53.296;6.600;2023-08-24T12:12:12;101562.66;;;22.03;82.30
51986;BME280;38002;53.296;6.600;2023-08-24T12:17:14;101559.22;;;22.07;82.43
51986;BME280;38002;53.296;6.600;2023-08-24T12:22:16;101558.56;;;22.12;82.55
51986;BME280;38002;53.296;6.600;2023-08-24T12:27:20;101551.97;;;22.13;82.95
51986;BME280;38002;53.296;6.600;2023-08-24T12:32:22;101560.03;;;22.14;82.82
51986;BME280;38002;53.296;6.600;2023-08-24T12:37:25;101561.53;;;22.17;83.52
51986;BME280;38002;53.296;6.600;2023-08-24T12:42:25;101554.06;;;22.17;83.31
51986;BME280;38002;53.296;6.600;2023-08-24T12:47:26;101541.03;;;22.18;83.44
51986;BME280;38002;53.296;6.600;2023-08-24T12:52:26;101541.69;;;22.20;83.38
51986;BME280;38002;53.296;6.600;2023-08-24T12:57:27;101542.94;;;22.24;83.13
51986;BME280;38002;53.296;6.600;2023-08-24T13:02:27;101528.41;;;22.29;82.96
51986;BME280;38002;53.296;6.600;2023-08-24T13:07:28;101515.59;;;22.34;83.42
51986;BME280;38002;53.296;6.600;2023-08-24T13:12:28;101508.09;;;22.41;83.59
51986;BME280;38002;53.296;6.600;2023-08-24T13:17:30;101501.00;;;22.45;83.47
51986;BME280;38002;53.296;6.600;2023-08-24T13:22:30;101499.94;;;22.46;83.08
51986;BME280;38002;53.296;6.600;2023-08-24T13:27:31;101498.03;;;22.47;83.14
51986;BME280;38002;53.296;6.600;2023-08-24T13:32:33;101485.03;;;22.47;83.33
51986;BME280;38002;53.296;6.600;2023-08-24T13:37:35;101462.00;;;22.47;83.55
51986;BME280;38002;53.296;6.600;2023-08-24T13:42:35;101459.22;;;22.47;84.11
51986;BME280;38002;53.296;6.600;2023-08-24T13:47:36;101457.06;;;22.49;83.86
51986;BME280;38002;53.296;6.600;2023-08-24T13:52:37;101450.91;;;22.47;84.08
51986;BME280;38002;53.296;6.600;2023-08-24T13:57:37;101458.38;;;22.46;84.50
51986;BME280;38002;53.296;6.600;2023-08-24T14:02:38;101453.44;;;22.48;84.64
51986;BME280;38002;53.296;6.600;2023-08-24T14:07:38;101449.59;;;22.49;84.61
51986;BME280;38002;53.296;6.600;2023-08-24T14:12:39;101438.72;;;22.48;84.76
51986;BME280;38002;53.296;6.600;2023-08-24T14:17:40;101432.13;;;22.49;84.79
51986;BME280;38002;53.296;6.600;2023-08-24T14:22:40;101430.66;;;22.46;85.20
51986;BME280;38002;53.296;6.600;2023-08-24T14:27:41;101425.56;;;22.43;85.03
51986;BME280;38002;53.296;6.600;2023-08-24T14:32:41;101434.56;;;22.39;85.05
51986;BME280;38002;53.296;6.600;2023-08-24T14:37:42;101422.44;;;22.33;85.43
51986;BME280;38002;53.296;6.600;2023-08-24T14:42:43;101419.97;;;22.25;85.30
51986;BME280;38002;53.296;6.600;2023-08-24T14:47:49;101406.78;;;22.21;85.34
51986;BME280;38002;53.296;6.600;2023-08-24T14:52:51;101414.47;;;22.18;86.05
51986;BME280;38002;53.296;6.600;2023-08-24T14:57:52;101407.25;;;22.17;86.15
51986;BME280;38002;53.296;6.600;2023-08-24T15:02:53;101406.16;;;22.18;86.48
51986;BME280;38002;53.296;6.600;2023-08-24T15:07:54;101409.31;;;22.22;86.21
51986;BME280;38002;53.296;6.600;2023-08-24T15:12:55;101394.19;;;22.25;86.04
51986;BME280;38002;53.296;6.600;2023-08-24T15:17:56;101401.19;;;22.27;86.73
51986;BME280;38002;53.296;6.600;2023-08-24T15:22:58;101393.72;;;22.28;86.18
51986;BME280;38002;53.296;6.600;2023-08-24T15:27:59;101377.34;;;22.26;86.74
51986;BME280;38002;53.296;6.600;2023-08-24T15:33:00;101371.78;;;22.26;86.60
51986;BME280;38002;53.296;6.600;2023-08-24T15:38:00;101363.69;;;22.25;86.43
51986;BME280;38002;53.296;6.600;2023-08-24T15:43:02;101361.78;;;22.25;86.90
51986;BME280;38002;53.296;6.600;2023-08-24T15:48:03;101354.06;;;22.27;87.08
51986;BME280;38002;53.296;6.600;2023-08-24T15:53:04;101352.41;;;22.26;87.37
51986;BME280;38002;53.296;6.600;2023-08-24T15:58:06;101344.09;;;22.26;87.10
51986;BME280;38002;53.296;6.600;2023-08-24T16:03:07;101346.84;;;22.26;87.58
51986;BME280;38002;53.296;6.600;2023-08-24T16:08:07;101349.63;;;22.26;87.46
51986;BME280;38002;53.296;6.600;2023-08-24T16:13:08;101329.38;;;22.26;87.67
51986;BME280;38002;53.296;6.600;2023-08-24T16:18:08;101322.13;;;22.25;87.19
51986;BME280;38002;53.296;6.600;2023-08-24T16:23:09;101327.69;;;22.25;87.55
51986;BME280;38002;53.296;6.600;2023-08-24T16:28:13;101302.34;;;22.21;87.71
51986;BME280;38002;53.296;6.600;2023-08-24T16:33:14;101300.69;;;22.13;87.54
51986;BME280;38002;53.296;6.600;2023-08-24T16:38:14;101287.13;;;22.05;87.88
51986;BME280;38002;53.296;6.600;2023-08-24T16:43:15;101277.19;;;21.98;87.70
51986;BME280;38002;53.296;6.600;2023-08-24T16:48:16;101261.06;;;21.88;87.47
51986;BME280;38002;53.296;6.600;2023-08-24T16:53:16;101252.66;;;21.77;87.77
51986;BME280;38002;53.296;6.600;2023-08-24T16:58:19;101250.00;;;21.63;88.11
51986;BME280;38002;53.296;6.600;2023-08-24T17:03:20;101252.41;;;21.53;87.99
51986;BME280;38002;53.296;6.600;2023-08-24T17:08:20;101250.56;;;21.47;88.31
51986;BME280;38002;53.296;6.600;2023-08-24T17:13:21;101246.97;;;21.40;88.20
51986;BME280;38002;53.296;6.600;2023-08-24T17:18:22;101253.41;;;21.34;88.34
51986;BME280;38002;53.296;6.600;2023-08-24T17:23:22;101253.88;;;21.24;88.33
51986;BME280;38002;53.296;6.600;2023-08-24T17:28:23;101231.81;;;21.11;88.56
51986;BME280;38002;53.296;6.600;2023-08-24T17:33:24;101217.19;;;21.04;88.36
51986;BME280;38002;53.296;6.600;2023-08-24T17:38:24;101206.78;;;21.00;88.66
51986;BME280;38002;53.296;6.600;2023-08-24T17:43:25;101186.59;;;20.93;88.94
51986;BME280;38002;53.296;6.600;2023-08-24T17:48:25;101189.81;;;20.90;88.87
51986;BME280;38002;53.296;6.600;2023-08-24T17:53:26;101194.97;;;20.86;88.85
51986;BME280;38002;53.296;6.600;2023-08-24T17:58:29;101188.56;;;20.86;88.92
51986;BME280;38002;53.296;6.600;2023-08-24T18:03:29;101178.44;;;20.79;89.26
51986;BME280;38002;53.296;6.600;2023-08-24T18:08:30;101176.31;;;20.75;89.39
51986;BME280;38002;53.296;6.600;2023-08-24T18:13:31;101169.94;;;20.74;89.52
51986;BME280;38002;53.296;6.600;2023-08-24T18:18:33;101160.16;;;20.72;89.52
51986;BME280;38002;53.296;6.600;2023-08-24T18:23:34;101161.47;;;20.69;89.53
51986;BME280;38002;53.296;6.600;2023-08-24T18:28:35;101167.44;;;20.66;89.81
51986;BME280;38002;53.296;6.600;2023-08-24T18:33:36;101146.38;;;20.65;90.04
51986;BME280;38002;53.296;6.600;2023-08-24T18:38:36;101136.84;;;20.61;90.24
51986;BME280;38002;53.296;6.600;2023-08-24T18:43:37;101140.69;;;20.60;90.08
51986;BME280;38002;53.296;6.600;2023-08-24T18:48:37;101130.06;;;20.57;90.46
51986;BME280;38002;53.296;6.600;2023-08-24T18:53:38;101122.47;;;20.46;90.32
51986;BME280;38002;53.296;6.600;2023-08-24T18:58:40;101116.06;;;20.52;90.42
51986;BME280;38002;53.296;6.600;2023-08-24T19:03:40;101100.75;;;20.50;90.53
51986;BME280;38002;53.296;6.600;2023-08-24T19:08:40;101109.28;;;20.48;90.55
51986;BME280;38002;53.296;6.600;2023-08-24T19:13:41;101111.66;;;20.45;90.80
51986;BME280;38002;53.296;6.600;2023-08-24T19:18:42;101088.91;;;20.43;90.83
51986;BME280;38002;53.296;6.600;2023-08-24T19:23:42;101073.63;;;20.40;90.93
51986;BME280;38002;53.296;6.600;2023-08-24T19:28:43;101059.41;;;20.36;91.01
51986;BME280;38002;53.296;6.600;2023-08-24T19:33:48;101058.78;;;20.34;91.26
51986;BME280;38002;53.296;6.600;2023-08-24T19:38:49;101062.84;;;20.32;91.11
51986;BME280;38002;53.296;6.600;2023-08-24T19:43:53;101050.31;;;20.29;91.11
51986;BME280;38002;53.296;6.600;2023-08-24T19:48:55;101067.50;;;20.25;91.39
51986;BME280;38002;53.296;6.600;2023-08-24T19:53:56;101063.53;;;20.14;92.81
51986;BME280;38002;53.296;6.600;2023-08-24T19:58:57;101064.81;;;20.18;91.46
51986;BME280;38002;53.296;6.600;2023-08-24T20:03:58;101069.91;;;20.15;91.54
51986;BME280;38002;53.296;6.600;2023-08-24T20:08:58;101051.25;;;20.10;91.61
51986;BME280;38002;53.296;6.600;2023-08-24T20:13:59;101076.91;;;20.11;91.88
51986;BME280;38002;53.296;6.600;2023-08-24T20:19:00;101070.78;;;20.09;91.81
51986;BME280;38002;53.296;6.600;2023-08-24T20:24:01;101069.53;;;20.05;91.68
51986;BME280;38002;53.296;6.600;2023-08-24T20:29:02;101088.00;;;20.04;91.88
51986;BME280;38002;53.296;6.600;2023-08-24T20:34:03;101084.84;;;20.01;91.81
51986;BME280;38002;53.296;6.600;2023-08-24T20:39:05;101083.59;;;19.97;92.05
51986;BME280;38002;53.296;6.600;2023-08-24T20:44:09;101085.09;;;19.92;91.92
51986;BME280;38002;53.296;6.600;2023-08-24T20:49:10;101072.34;;;19.91;92.00
51986;BME280;38002;53.296;6.600;2023-08-24T20:54:10;101062.81;;;19.87;92.11
51986;BME280;38002;53.296;6.600;2023-08-24T20:59:11;101072.59;;;19.83;92.17
51986;BME280;38002;53.296;6.600;2023-08-24T21:04:11;101067.47;;;19.80;92.27
51986;BME280;38002;53.296;6.600;2023-08-24T21:09:12;101064.09;;;19.78;92.52
51986;BME280;38002;53.296;6.600;2023-08-24T21:14:12;101066.22;;;19.76;92.50
51986;BME280;38002;53.296;6.600;2023-08-24T21:19:13;101066.22;;;19.76;92.24
51986;BME280;38002;53.296;6.600;2023-08-24T21:24:16;101050.75;;;19.75;92.68
51986;BME280;38002;53.296;6.600;2023-08-24T21:29:16;101026.13;;;19.74;92.47
51986;BME280;38002;53.296;6.600;2023-08-24T21:34:17;101019.97;;;19.72;92.50
51986;BME280;38002;53.296;6.600;2023-08-24T21:39:18;101003.84;;;19.69;92.38
51986;BME280;38002;53.296;6.600;2023-08-24T21:44:19;101005.75;;;19.68;92.49
51986;BME280;38002;53.296;6.600;2023-08-24T21:49:19;101008.13;;;19.65;92.72
51986;BME280;38002;53.296;6.600;2023-08-24T21:54:19;101011.09;;;19.63;92.55
51986;BME280;38002;53.296;6.600;2023-08-24T21:59:20;101028.94;;;19.61;92.71
51986;BME280;38002;53.296;6.600;2023-08-24T22:04:20;101011.31;;;19.62;92.90
51986;BME280;38002;53.296;6.600;2023-08-24T22:09:21;101009.00;;;19.59;92.96
51986;BME280;38002;53.296;6.600;2023-08-24T22:14:22;101021.94;;;19.58;92.87
51986;BME280;38002;53.296;6.600;2023-08-24T22:19:22;101025.97;;;19.56;92.89
51986;BME280;38002;53.296;6.600;2023-08-24T22:24:23;101042.75;;;19.54;93.10
51986;BME280;38002;53.296;6.600;2023-08-24T22:29:23;101036.59;;;19.52;93.00
51986;BME280;38002;53.296;6.600;2023-08-24T22:34:27;101025.75;;;19.51;92.97
51986;BME280;38002;53.296;6.600;2023-08-24T22:39:28;101036.19;;;19.48;93.09
51986;BME280;38002;53.296;6.600;2023-08-24T22:44:28;101051.88;;;19.48;93.52
51986;BME280;38002;53.296;6.600;2023-08-24T22:49:29;101041.66;;;19.55;93.54
51986;BME280;38002;53.296;6.600;2023-08-24T22:54:29;101021.72;;;19.60;93.46
51986;BME280;38002;53.296;6.600;2023-08-24T22:59:30;101024.25;;;19.61;93.43
51986;BME280;38002;53.296;6.600;2023-08-24T23:04:30;101031.88;;;19.66;93.72
51986;BME280;38002;53.296;6.600;2023-08-24T23:09:30;101030.38;;;19.70;93.70
51986;BME280;38002;53.296;6.600;2023-08-24T23:14:32;101037.81;;;19.69;96.41
51986;BME280;38002;53.296;6.600;2023-08-24T23:19:34;101025.47;;;19.72;96.04
51986;BME280;38002;53.296;6.600;2023-08-24T23:24:36;101023.16;;;19.75;96.08
51986;BME280;38002;53.296;6.600;2023-08-24T23:29:36;101029.69;;;19.81;93.51
51986;BME280;38002;53.296;6.600;2023-08-24T23:34:37;101015.69;;;19.82;93.57
51986;BME280;38002;53.296;6.600;2023-08-24T23:39:37;101025.25;;;19.80;93.47
51986;BME280;38002;53.296;6.600;2023-08-24T23:44:38;101017.00;;;19.80;93.44
51986;BME280;38002;53.296;6.600;2023-08-24T23:49:39;101015.72;;;19.76;93.56
51986;BME280;38002;53.296;6.600;2023-08-24T23:54:39;101004.06;;;19.74;93.83
51986;BME280;38002;53.296;6.600;2023-08-24T23:59:40;100989.00;;;19.70;93.75
